Time;durP1;ratioP1;P1;durP2;ratioP2;P2;SDS_P1;SDS_P2;PMS_P1;PMS_P2;Temp;Humidity;BMP_temperature;BMP_pressure;BME280_temperature;BME280_humidity;BME280_pressure;Samples;Min_cycle;Max_cycle;Signal;HPM_P1;HPM_P2
2022/06/01 00:00:09;;;;;;;13.82;3.90;;;21.40;56.50;;;;;;5064966;28;20520;-59
2022/06/01 00:02:35;;;;;;;11.43;3.80;;;21.40;56.50;;;;;;5070185;28;20024;-59
2022/06/01 00:05:01;;;;;;;10.80;3.75;;;21.40;56.50;;;;;;5067642;28;20017;-59
2022/06/01 00:07:27;;;;;;;13.98;4.30;;;21.40;56.50;;;;;;5059898;28;20040;-59
2022/06/01 00:09:54;;;;;;;11.80;4.30;;;21.40;56.50;;;;;;5068127;28;20033;-59
2022/06/01 00:12:21;;;;;;;13.20;4.65;;;21.40;56.50;;;;;;5068706;28;20028;-59
2022/06/01 00:14:46;;;;;;;10.82;4.00;;;21.40;56.50;;;;;;5066072;28;20047;-59
2022/06/01 00:17:12;;;;;;;13.15;4.05;;;21.30;56.50;;;;;;5069191;28;20481;-59
2022/06/01 00:19:37;;;;;;;12.57;4.00;;;21.30;56.50;;;;;;5058851;28;20428;-59
2022/06/01 00:22:12;;;;;;;13.05;3.63;;;21.30;56.60;;;;;;5067754;28;20481;-59
2022/06/01 00:24:39;;;;;;;14.00;4.05;;;21.30;56.60;;;;;;5058074;28;20358;-59
2022/06/01 00:27:05;;;;;;;10.88;3.70;;;21.30;56.60;;;;;;5062921;28;20450;-59
2022/06/01 00:29:31;;;;;;;12.13;3.40;;;21.30;56.70;;;;;;5062288;28;20089;-59
2022/06/01 00:31:57;;;;;;;12.77;4.03;;;21.30;56.70;;;;;;5061212;28;20435;-59
2022/06/01 00:34:22;;;;;;;12.35;3.78;;;21.30;56.70;;;;;;5068112;28;20040;-59
2022/06/01 00:36:48;;;;;;;12.35;3.95;;;21.20;56.60;;;;;;5065284;28;20071;-59
2022/06/01 00:39:14;;;;;;;11.57;3.97;;;21.20;56.70;;;;;;5063176;28;20056;-59
2022/06/01 00:41:39;;;;;;;12.25;3.70;;;21.20;56.70;;;;;;5058717;28;20062;-59
2022/06/01 00:44:05;;;;;;;11.70;3.95;;;21.20;56.70;;;;;;5058622;28;20070;-58
2022/06/01 00:46:31;;;;;;;12.07;3.75;;;21.20;56.70;;;;;;5069197;28;20028;-59
2022/06/01 00:49:00;;;;;;;9.15;3.83;;;21.20;56.70;;;;;;5067370;28;20460;-59
2022/06/01 00:51:26;;;;;;;11.45;3.85;;;21.20;56.70;;;;;;5060602;28;20036;-59
2022/06/01 00:53:52;;;;;;;10.48;3.45;;;21.20;56.80;;;;;;5073366;28;20023;-59
2022/06/01 00:56:20;;;;;;;10.25;3.08;;;21.10;56.70;;;;;;5075696;28;20617;-59
2022/06/01 00:58:48;;;;;;;11.88;3.50;;;21.10;56.80;;;;;;5057593;28;20020;-58
2022/06/01 01:01:17;;;;;;;11.60;3.65;;;21.10;56.80;;;;;;5065310;28;20111;-59
2022/06/01 01:03:43;;;;;;;13.20;3.85;;;21.10;56.80;;;;;;5052221;28;20039;-59
2022/06/01 01:06:24;;;;;;;9.63;3.58;;;21.10;56.90;;;;;;5065084;28;20032;-59
2022/06/01 01:08:51;;;;;;;10.15;3.58;;;21.10;56.90;;;;;;5064548;28;20013;-59
2022/06/01 01:11:25;;;;;;;11.93;3.88;;;21.00;56.80;;;;;;5060836;28;20029;-59
2022/06/01 01:13:51;;;;;;;12.70;3.90;;;21.10;56.90;;;;;;5061340;28;20096;-59
2022/06/01 01:16:17;;;;;;;10.82;3.38;;;21.00;56.80;;;;;;5066067;28;20051;-59
2022/06/01 01:18:44;;;;;;;9.63;3.50;;;21.00;56.90;;;;;;5060544;28;20021;-59
2022/06/01 01:21:16;;;;;;;12.77;3.53;;;21.00;56.90;;;;;;5063048;28;20418;-59
2022/06/01 01:24:04;;;;;;;11.30;3.75;;;21.00;56.90;;;;;;5065630;28;20090;-59
2022/06/01 01:26:30;;;;;;;9.07;3.30;;;21.00;56.90;;;;;;5078845;28;20036;-59
2022/06/01 01:28:55;;;;;;;11.30;3.60;;;21.00;57.00;;;;;;5047067;28;20037;-59
2022/06/01 01:31:22;;;;;;;12.07;3.70;;;21.00;57.10;;;;;;5063606;28;20039;-59
2022/06/01 01:33:49;;;;;;;10.73;3.40;;;21.00;57.10;;;;;;5062069;28;20444;-59
2022/06/01 01:36:16;;;;;;;10.68;3.70;;;21.00;57.10;;;;;;5063755;28;20401;-59
2022/06/01 01:38:45;;;;;;;10.40;3.40;;;20.90;57.10;;;;;;5064707;28;20024;-59
2022/06/01 01:41:28;;;;;;;10.25;3.40;;;20.90;57.10;;;;;;5057062;28;20066;-59
2022/06/01 01:43:59;;;;;;;9.52;3.45;;;20.90;57.10;;;;;;5064071;28;20056;-59
2022/06/01 01:46:25;;;;;;;10.95;3.53;;;20.90;57.10;;;;;;5066819;28;20505;-59
2022/06/01 01:48:50;;;;;;;11.18;3.38;;;20.90;57.10;;;;;;5061657;28;20095;-59
2022/06/01 01:51:23;;;;;;;9.00;3.00;;;20.90;57.20;;;;;;5061154;28;20037;-59
2022/06/01 01:53:49;;;;;;;9.45;3.05;;;20.90;57.20;;;;;;5060276;28;20053;-59
2022/06/01 01:56:46;;;;;;;8.77;3.20;;;20.90;57.20;;;;;;5061363;28;20509;-59
2022/06/01 01:59:36;;;;;;;9.60;3.20;;;20.90;57.20;;;;;;5058005;28;20574;-59
2022/06/01 02:02:07;;;;;;;8.48;3.10;;;20.90;57.20;;;;;;5060919;28;20052;-59
2022/06/01 02:08:17;;;;;;;9.15;3.00;;;20.80;57.20;;;;;;5030283;28;20653;-59
2022/06/01 02:13:27;;;;;;;8.93;3.33;;;20.80;57.30;;;;;;5040266;28;20127;-58
2022/06/01 02:15:53;;;;;;;9.77;3.30;;;20.80;57.40;;;;;;5039433;28;20333;-59
2022/06/01 02:18:22;;;;;;;9.85;3.70;;;20.80;57.40;;;;;;5047839;28;20040;-59
2022/06/01 02:20:59;;;;;;;10.82;3.05;;;20.80;57.50;;;;;;5023638;28;20661;-59
2022/06/01 02:23:25;;;;;;;8.05;3.08;;;20.70;57.40;;;;;;5044890;28;20588;-59
2022/06/01 02:25:53;;;;;;;6.88;2.75;;;20.70;57.50;;;;;;5029170;28;20064;-59
2022/06/01 02:28:18;;;;;;;9.48;3.10;;;20.70;57.50;;;;;;5043541;28;20045;-59
2022/06/01 02:30:44;;;;;;;10.60;3.20;;;20.70;57.50;;;;;;5046978;28;20032;-59
2022/06/01 02:33:14;;;;;;;8.52;3.28;;;20.70;57.50;;;;;;5023957;28;20057;-59
2022/06/01 02:35:42;;;;;;;7.28;2.95;;;20.70;57.50;;;;;;5022264;28;20552;-59
2022/06/01 02:38:10;;;;;;;9.38;3.22;;;20.70;57.50;;;;;;5030168;28;20091;-59
2022/06/01 02:40:37;;;;;;;7.22;2.85;;;20.70;57.60;;;;;;5039886;28;20041;-59
2022/06/01 02:43:02;;;;;;;7.72;2.90;;;20.70;57.50;;;;;;5038478;28;20037;-59
2022/06/01 02:45:28;;;;;;;8.15;3.10;;;20.70;57.50;;;;;;5055121;28;20041;-59
2022/06/01 02:47:55;;;;;;;6.88;2.80;;;20.70;57.60;;;;;;5061359;28;20056;-59
2022/06/01 02:50:26;;;;;;;11.32;3.50;;;20.60;57.50;;;;;;5063004;28;20079;-59
2022/06/01 02:52:52;;;;;;;7.95;3.03;;;20.60;57.40;;;;;;5065617;28;20020;-59
2022/06/01 02:55:18;;;;;;;6.38;2.60;;;20.70;57.50;;;;;;5062458;28;20046;-59
2022/06/01 02:57:44;;;;;;;9.02;3.08;;;20.60;57.50;;;;;;5059310;28;20017;-59
2022/06/01 03:00:24;;;;;;;9.57;3.33;;;20.60;57.50;;;;;;5063697;28;20055;-59
2022/06/01 03:02:54;;;;;;;9.55;3.00;;;20.60;57.50;;;;;;5061570;28;20489;-59
2022/06/01 03:05:23;;;;;;;8.38;2.97;;;20.60;57.50;;;;;;5063032;28;20075;-59
2022/06/01 03:07:50;;;;;;;7.22;2.83;;;20.60;57.50;;;;;;5058921;28;20047;-59
2022/06/01 03:10:15;;;;;;;8.95;2.92;;;20.60;57.50;;;;;;5060728;28;20082;-59
2022/06/01 03:12:41;;;;;;;7.07;2.70;;;20.60;57.50;;;;;;5066508;28;20016;-59
2022/06/01 03:15:07;;;;;;;9.10;3.17;;;20.60;57.60;;;;;;5062125;28;20501;-59
2022/06/01 03:17:33;;;;;;;8.38;3.20;;;20.50;57.50;;;;;;5063009;28;20012;-59
2022/06/01 03:19:59;;;;;;;7.40;2.70;;;20.50;57.60;;;;;;5066305;28;20040;-59
2022/06/01 03:22:25;;;;;;;8.43;3.05;;;20.50;57.50;;;;;;5065997;28;20066;-59
2022/06/01 03:24:50;;;;;;;7.55;2.53;;;20.50;57.50;;;;;;5065790;28;20052;-59
2022/06/01 03:27:17;;;;;;;6.95;2.72;;;20.50;57.50;;;;;;5068741;28;20095;-59
2022/06/01 03:29:43;;;;;;;7.15;2.80;;;20.50;57.60;;;;;;5061499;28;20594;-59
2022/06/01 03:32:08;;;;;;;7.25;2.63;;;20.50;57.50;;;;;;5070817;28;20048;-59
2022/06/01 03:34:34;;;;;;;6.90;2.58;;;20.50;57.60;;;;;;5062501;28;20498;-59
2022/06/01 03:37:00;;;;;;;9.05;2.90;;;20.50;57.50;;;;;;5067706;28;20024;-59
2022/06/01 03:39:26;;;;;;;8.65;3.10;;;20.40;57.50;;;;;;5067440;28;20017;-59
2022/06/01 03:41:51;;;;;;;6.72;2.58;;;20.40;57.50;;;;;;5063066;28;20033;-59
2022/06/01 03:47:04;;;;;;;7.87;2.80;;;20.40;57.50;;;;;;5066409;28;20564;-59
2022/06/01 03:49:29;;;;;;;8.25;2.85;;;20.40;57.50;;;;;;5066764;28;20031;-59
2022/06/01 03:51:56;;;;;;;8.10;2.72;;;20.40;57.60;;;;;;5069910;28;20464;-59
2022/06/01 03:54:22;;;;;;;7.10;2.47;;;20.40;57.50;;;;;;5064047;28;20052;-60
2022/06/01 03:56:48;;;;;;;8.48;2.88;;;20.40;57.50;;;;;;5060089;28;20052;-60
2022/06/01 03:59:13;;;;;;;7.85;2.65;;;20.40;57.50;;;;;;5065212;28;20063;-59
2022/06/01 04:01:39;;;;;;;9.40;2.85;;;20.40;57.50;;;;;;5062867;28;20051;-59
2022/06/01 04:04:05;;;;;;;7.75;2.80;;;20.40;57.50;;;;;;5063341;28;20086;-59
2022/06/01 04:06:31;;;;;;;7.75;2.60;;;20.40;57.50;;;;;;5058740;28;20402;-59
2022/06/01 04:08:56;;;;;;;7.47;2.65;;;20.40;57.60;;;;;;5061944;28;20105;-59
2022/06/01 04:11:22;;;;;;;6.78;2.60;;;20.40;57.50;;;;;;5064664;28;20120;-59
2022/06/01 04:13:48;;;;;;;7.65;2.67;;;20.40;57.50;;;;;;5064348;28;20025;-60
2022/06/01 04:16:18;;;;;;;6.53;2.63;;;20.30;57.50;;;;;;5066539;28;20508;-59
2022/06/01 04:18:47;;;;;;;7.07;2.53;;;20.30;57.60;;;;;;5062068;28;20024;-59
2022/06/01 04:21:14;;;;;;;6.55;2.72;;;20.30;57.50;;;;;;5063862;28;20031;-60
2022/06/01 04:23:39;;;;;;;9.38;2.70;;;20.30;57.60;;;;;;5065666;28;20048;-60
2022/06/01 04:26:05;;;;;;;6.15;2.28;;;20.30;57.50;;;;;;5059813;28;20028;-60
2022/06/01 04:28:31;;;;;;;7.55;2.80;;;20.30;57.50;;;;;;5065362;28;20028;-60
2022/06/01 04:30:58;;;;;;;6.40;2.42;;;20.30;57.50;;;;;;5063582;28;20048;-60
2022/06/01 04:33:25;;;;;;;6.47;2.45;;;20.30;57.60;;;;;;5059359;28;20025;-59
2022/06/01 04:35:51;;;;;;;8.82;2.78;;;20.30;57.60;;;;;;5064028;28;20401;-60
2022/06/01 04:38:18;;;;;;;6.45;2.53;;;20.30;57.60;;;;;;5062083;28;20063;-60
2022/06/01 04:40:48;;;;;;;8.40;2.63;;;20.20;57.50;;;;;;5066596;28;20024;-60
2022/06/01 04:43:18;;;;;;;6.22;2.63;;;20.20;57.50;;;;;;5062256;28;20056;-59
2022/06/01 04:45:44;;;;;;;6.53;2.70;;;20.20;57.60;;;;;;5060171;28;20029;-59
2022/06/01 04:48:10;;;;;;;10.85;2.63;;;20.20;57.60;;;;;;5055724;28;20037;-59
2022/06/01 04:50:42;;;;;;;7.28;2.45;;;20.20;57.60;;;;;;5060557;28;20048;-59
2022/06/01 04:53:11;;;;;;;9.23;2.67;;;20.20;57.60;;;;;;5058047;28;20033;-59
2022/06/01 04:55:36;;;;;;;8.73;3.30;;;20.20;57.60;;;;;;5063310;28;20108;-59
2022/06/01 04:58:02;;;;;;;7.90;2.67;;;20.20;57.60;;;;;;5063904;28;20123;-59
2022/06/01 05:00:28;;;;;;;8.38;2.47;;;20.20;57.60;;;;;;5056842;28;20392;-59
2022/06/01 05:02:53;;;;;;;6.32;2.40;;;20.20;57.60;;;;;;5061084;28;20028;-59
2022/06/01 05:05:19;;;;;;;8.25;2.70;;;20.20;57.60;;;;;;5064185;28;20064;-59
2022/06/01 05:07:44;;;;;;;6.85;2.58;;;20.20;57.70;;;;;;5062713;28;20112;-58
2022/06/01 05:10:10;;;;;;;7.63;2.65;;;20.20;57.80;;;;;;5064606;28;20075;-59
2022/06/01 05:12:36;;;;;;;7.50;2.75;;;20.20;58.00;;;;;;5059855;28;20107;-59
2022/06/01 05:15:01;;;;;;;8.38;2.60;;;20.20;57.90;;;;;;5059084;28;20041;-59
2022/06/01 05:17:30;;;;;;;8.23;2.85;;;20.30;58.00;;;;;;5059544;28;20033;-59
2022/06/01 05:19:56;;;;;;;9.45;2.90;;;20.30;58.10;;;;;;5061275;28;20556;-58
2022/06/01 05:22:21;;;;;;;14.20;3.05;;;20.30;58.40;;;;;;5056135;28;20025;-58
2022/06/01 05:24:47;;;;;;;10.82;2.90;;;20.30;58.60;;;;;;5060693;28;20047;-59
2022/06/01 05:27:13;;;;;;;13.13;2.92;;;20.30;58.50;;;;;;5066168;28;20378;-58
2022/06/01 05:29:38;;;;;;;11.20;2.95;;;20.30;58.40;;;;;;5065210;28;20560;-59
2022/06/01 05:32:04;;;;;;;10.75;2.80;;;20.30;58.30;;;;;;5063086;28;20547;-58
2022/06/01 05:34:30;;;;;;;10.90;3.20;;;20.30;58.40;;;;;;5054254;28;20409;-58
2022/06/01 05:36:56;;;;;;;11.23;3.33;;;20.30;58.40;;;;;;5059906;28;20033;-58
2022/06/01 05:39:21;;;;;;;9.38;2.70;;;20.30;58.30;;;;;;5061619;28;20512;-58
2022/06/01 05:41:47;;;;;;;12.38;3.72;;;20.30;58.40;;;;;;5059883;28;20155;-58
2022/06/01 05:44:13;;;;;;;10.88;3.15;;;20.30;58.50;;;;;;5057663;28;20052;-58
2022/06/01 05:46:39;;;;;;;9.75;2.78;;;20.20;58.30;;;;;;5058763;28;20028;-58
2022/06/01 05:49:05;;;;;;;15.77;3.08;;;20.20;58.40;;;;;;5058460;28;20099;-58
2022/06/01 05:51:31;;;;;;;11.30;3.10;;;20.20;59.40;;;;;;5063570;28;20119;-58
2022/06/01 05:53:57;;;;;;;13.20;3.03;;;20.30;58.40;;;;;;5060584;28;20112;-58
2022/06/01 05:56:22;;;;;;;10.90;3.13;;;20.20;58.40;;;;;;5061469;28;20050;-58
2022/06/01 05:58:50;;;;;;;11.02;3.00;;;20.20;58.30;;;;;;5058659;28;20025;-58
2022/06/01 06:01:17;;;;;;;10.77;3.00;;;20.20;58.40;;;;;;5053693;28;20043;-58
2022/06/01 06:03:42;;;;;;;9.48;2.90;;;20.20;58.30;;;;;;5065524;28;20025;-58
2022/06/01 06:06:17;;;;;;;8.18;3.00;;;20.20;58.30;;;;;;5059860;28;20040;-58
2022/06/01 06:08:53;;;;;;;9.15;3.00;;;20.20;58.30;;;;;;5072867;28;20020;-58
2022/06/01 06:11:19;;;;;;;9.23;2.97;;;20.20;58.20;;;;;;5069681;28;20041;-58
2022/06/01 06:13:45;;;;;;;10.13;3.00;;;20.20;58.30;;;;;;5068564;28;20025;-58
2022/06/01 06:16:11;;;;;;;11.30;2.80;;;20.20;58.30;;;;;;5066390;28;20094;-58
2022/06/01 06:18:36;;;;;;;14.27;3.10;;;20.20;58.30;;;;;;5068906;28;20051;-58
2022/06/01 06:21:02;;;;;;;9.93;2.97;;;20.20;58.40;;;;;;5053735;28;20363;-58
2022/06/01 06:23:28;;;;;;;8.50;3.10;;;20.10;58.30;;;;;;5063265;28;20108;-58
2022/06/01 06:25:54;;;;;;;9.75;2.70;;;20.20;58.40;;;;;;5068655;28;20028;-58
2022/06/01 06:28:19;;;;;;;10.95;3.03;;;20.10;58.30;;;;;;5069153;28;20068;-58
2022/06/01 06:30:45;;;;;;;11.40;3.25;;;20.10;58.30;;;;;;5068333;28;20032;-58
2022/06/01 06:33:11;;;;;;;9.82;3.03;;;20.10;58.40;;;;;;5061424;28;20112;-58
2022/06/01 06:35:36;;;;;;;8.45;2.80;;;20.10;58.40;;;;;;5066608;28;20163;-58
2022/06/01 06:38:02;;;;;;;10.73;3.00;;;20.10;58.40;;;;;;5066815;28;20093;-58
2022/06/01 06:40:28;;;;;;;8.63;2.70;;;20.10;58.30;;;;;;5067507;28;20428;-58
2022/06/01 06:42:53;;;;;;;11.35;2.88;;;20.10;58.30;;;;;;5068211;28;20025;-58
2022/06/01 06:45:22;;;;;;;11.40;3.00;;;20.10;58.30;;;;;;5066217;28;20078;-58
2022/06/01 06:47:48;;;;;;;9.90;2.88;;;20.10;58.30;;;;;;5064025;28;20048;-58
2022/06/01 06:50:14;;;;;;;8.43;2.80;;;20.10;58.30;;;;;;5066645;28;20032;-58
2022/06/01 06:52:40;;;;;;;10.68;2.63;;;20.10;58.30;;;;;;5065689;28;20111;-58
2022/06/01 06:55:06;;;;;;;9.02;2.97;;;20.10;58.30;;;;;;5064468;28;20111;-58
2022/06/01 06:57:32;;;;;;;6.85;2.85;;;20.10;58.30;;;;;;5065843;28;20029;-58
2022/06/01 06:59:58;;;;;;;11.75;3.20;;;20.00;58.30;;;;;;5064807;28;20449;-58
2022/06/01 07:02:23;;;;;;;8.23;2.70;;;20.00;58.20;;;;;;5073933;28;20355;-58
2022/06/01 07:04:49;;;;;;;7.65;2.63;;;20.10;58.20;;;;;;5071216;28;20025;-58
2022/06/01 07:07:15;;;;;;;9.00;3.03;;;20.10;58.10;;;;;;5072471;28;20501;-58
2022/06/01 07:09:41;;;;;;;9.63;3.00;;;20.10;58.00;;;;;;5069899;28;20471;-58
2022/06/01 07:12:06;;;;;;;10.82;2.80;;;20.10;58.00;;;;;;5074616;28;20493;-58
2022/06/01 07:14:32;;;;;;;7.15;2.45;;;20.10;58.00;;;;;;5073990;28;20136;-58
2022/06/01 07:17:01;;;;;;;10.23;2.90;;;20.10;58.00;;;;;;5066454;28;20021;-58
2022/06/01 07:19:27;;;;;;;9.90;2.60;;;20.10;58.00;;;;;;5069500;28;20033;-58
2022/06/01 07:21:53;;;;;;;9.85;2.92;;;20.10;58.00;;;;;;5070139;28;20380;-58
2022/06/01 07:24:19;;;;;;;5.95;2.55;;;20.10;57.90;;;;;;5077381;28;20048;-58
2022/06/01 07:26:45;;;;;;;10.55;2.33;;;20.20;58.00;;;;;;5071672;28;20172;-58
2022/06/01 07:29:12;;;;;;;9.38;2.63;;;20.20;58.00;;;;;;5067625;28;20041;-58
2022/06/01 07:31:38;;;;;;;7.13;2.70;;;20.20;57.90;;;;;;5063881;28;20036;-58
2022/06/01 07:34:03;;;;;;;7.88;2.50;;;20.20;57.90;;;;;;5074054;28;20035;-58
2022/06/01 07:36:29;;;;;;;8.88;2.95;;;20.20;57.80;;;;;;5071614;28;20397;-58
2022/06/01 07:44:38;;;;;;;10.35;3.10;;;20.20;58.00;;;;;;5071773;28;20063;-58
2022/06/01 07:47:04;;;;;;;11.43;3.05;;;20.20;58.00;;;;;;5071236;28;20079;-59
2022/06/01 07:49:30;;;;;;;6.57;2.45;;;20.20;58.00;;;;;;5068520;28;20040;-58
2022/06/01 07:51:55;;;;;;;7.55;2.58;;;20.30;58.10;;;;;;5073113;28;20397;-58
2022/06/01 07:54:21;;;;;;;9.65;2.60;;;20.30;58.10;;;;;;5070425;28;20024;-59
2022/06/01 07:56:46;;;;;;;6.40;2.55;;;20.30;58.00;;;;;;5071778;28;20119;-58
2022/06/01 07:59:12;;;;;;;7.07;2.83;;;20.30;58.00;;;;;;5061240;28;20036;-59
2022/06/01 08:01:38;;;;;;;6.32;2.40;;;20.30;58.10;;;;;;5064080;28;20028;-58
2022/06/01 08:04:04;;;;;;;9.07;2.75;;;20.30;58.10;;;;;;5068305;28;20132;-58
2022/06/01 08:06:30;;;;;;;7.15;2.53;;;20.30;57.90;;;;;;5070530;28;20031;-58
2022/06/01 08:08:56;;;;;;;8.27;2.47;;;20.30;58.00;;;;;;5072588;28;20031;-58
2022/06/01 08:13:06;;;;;;;10.10;2.75;;;20.30;58.00;;;;;;5070293;28;20603;-58
2022/06/01 08:14:08;;;;;;;5.85;2.63;;;20.30;57.90;;;;;;5059603;28;20025;-59
2022/06/01 08:16:34;;;;;;;9.82;2.90;;;20.40;58.10;;;;;;5067676;28;20032;-58
2022/06/01 08:18:59;;;;;;;8.07;2.40;;;20.30;57.90;;;;;;5073422;28;20448;-58
2022/06/01 08:21:25;;;;;;;8.07;2.70;;;20.40;58.10;;;;;;5067206;28;20111;-58
2022/06/01 08:23:51;;;;;;;7.43;2.60;;;20.40;58.00;;;;;;5068806;28;20054;-58
2022/06/01 08:26:17;;;;;;;5.63;2.35;;;20.40;58.00;;;;;;5072926;28;20412;-59
2022/06/01 08:28:42;;;;;;;7.22;2.70;;;20.40;58.00;;;;;;5069048;28;20481;-58
2022/06/01 08:31:08;;;;;;;8.70;2.70;;;20.40;58.00;;;;;;5066607;28;20040;-58
2022/06/01 08:33:34;;;;;;;8.20;2.72;;;20.40;57.90;;;;;;5064650;28;20024;-58
2022/06/01 08:36:00;;;;;;;6.88;2.60;;;20.40;57.90;;;;;;5065096;28;20028;-59
2022/06/01 08:38:25;;;;;;;6.75;2.58;;;20.40;58.40;;;;;;5063333;28;20034;-59
2022/06/01 08:41:00;;;;;;;6.90;2.40;;;20.40;57.90;;;;;;5069026;28;20025;-59
2022/06/01 08:43:30;;;;;;;6.82;2.30;;;20.50;58.00;;;;;;5067150;28;20075;-58
2022/06/01 08:45:58;;;;;;;7.13;2.53;;;20.40;57.80;;;;;;5068457;28;20029;-58
2022/06/01 08:48:37;;;;;;;7.95;2.45;;;20.50;57.80;;;;;;5049668;28;20052;-58
2022/06/01 08:51:03;;;;;;;5.97;2.53;;;20.50;57.80;;;;;;5066339;28;20036;-59
2022/06/01 08:53:28;;;;;;;6.65;2.58;;;20.50;57.80;;;;;;5066585;28;20021;-59
2022/06/01 08:56:00;;;;;;;5.35;2.17;;;20.50;57.80;;;;;;5068733;28;20036;-59
2022/06/01 08:58:38;;;;;;;6.60;2.60;;;20.50;57.80;;;;;;5062869;28;20394;-59
2022/06/01 09:01:41;;;;;;;8.85;2.30;;;20.50;57.70;;;;;;5074439;28;20480;-59
2022/06/01 09:04:31;;;;;;;7.53;2.60;;;20.50;57.70;;;;;;5041086;28;20030;-59
2022/06/01 09:07:33;;;;;;;7.72;2.63;;;20.60;57.70;;;;;;5036072;28;20033;-59
2022/06/01 09:10:05;;;;;;;7.35;2.65;;;20.60;57.60;;;;;;5006000;28;20034;-59
2022/06/01 09:12:31;;;;;;;6.90;2.80;;;20.60;57.60;;;;;;4988377;28;20183;-59
2022/06/01 09:14:57;;;;;;;8.15;2.40;;;20.60;57.60;;;;;;4973156;28;20030;-59
2022/06/01 09:17:23;;;;;;;6.03;2.38;;;20.60;57.50;;;;;;4981049;28;20054;-59
2022/06/01 09:22:38;;;;;;;6.67;2.47;;;20.60;57.50;;;;;;4979794;28;20033;-59
2022/06/01 09:25:06;;;;;;;6.03;2.28;;;20.60;57.50;;;;;;5005647;28;20061;-59
2022/06/01 09:27:38;;;;;;;5.80;2.55;;;20.70;57.50;;;;;;4979735;28;20116;-59
2022/06/01 09:30:22;;;;;;;7.53;2.60;;;20.70;57.50;;;;;;5004411;28;20521;-58
2022/06/01 09:32:58;;;;;;;6.45;2.28;;;20.70;57.40;;;;;;5005246;28;20037;-59
2022/06/01 09:35:24;;;;;;;7.43;2.40;;;20.70;57.40;;;;;;4999547;28;20026;-59
2022/06/01 09:37:50;;;;;;;6.47;2.55;;;20.70;57.30;;;;;;4975378;28;20042;-59
2022/06/01 09:40:24;;;;;;;5.85;2.30;;;20.80;57.30;;;;;;5010887;28;20091;-59
2022/06/01 09:42:52;;;;;;;4.85;2.20;;;20.80;57.30;;;;;;5034014;28;20209;-59
2022/06/01 09:45:26;;;;;;;6.40;2.30;;;20.80;57.30;;;;;;5063318;28;20021;-59
2022/06/01 09:47:52;;;;;;;7.85;2.60;;;20.80;57.20;;;;;;5070817;28;20089;-59
2022/06/01 09:50:29;;;;;;;6.15;2.70;;;20.80;57.20;;;;;;5056318;28;20049;-59
2022/06/01 09:53:18;;;;;;;5.90;2.42;;;20.80;57.20;;;;;;5066542;28;20056;-59
2022/06/01 09:55:58;;;;;;;5.63;2.15;;;20.80;57.20;;;;;;5063230;28;20100;-59
2022/06/01 10:07:22;;;;;;;6.40;2.50;;;20.90;57.10;;;;;;5066862;28;20044;-59
2022/06/01 10:10:01;;;;;;;6.60;2.40;;;20.90;57.00;;;;;;5066834;28;20102;-59
2022/06/01 10:12:33;;;;;;;6.05;2.30;;;20.90;57.00;;;;;;5072885;28;20024;-59
2022/06/01 10:15:00;;;;;;;4.45;2.30;;;20.90;57.00;;;;;;5069694;28;20052;-59
2022/06/01 10:17:36;;;;;;;5.43;2.20;;;21.00;57.00;;;;;;5065100;28;20036;-59
2022/06/01 10:20:17;;;;;;;4.95;2.10;;;21.00;57.10;;;;;;5058759;28;20050;-59
2022/06/01 10:22:46;;;;;;;6.68;2.20;;;21.00;57.00;;;;;;5063842;28;20467;-59
2022/06/01 10:25:17;;;;;;;4.45;2.08;;;21.00;56.90;;;;;;5068035;28;20442;-59
2022/06/01 10:27:51;;;;;;;4.95;2.15;;;21.00;56.90;;;;;;5068050;28;20536;-59
2022/06/01 10:30:32;;;;;;;6.17;2.50;;;21.00;56.90;;;;;;5073488;28;20044;-59
2022/06/01 10:33:12;;;;;;;4.53;2.35;;;21.00;56.80;;;;;;5066589;28;20108;-59
2022/06/01 10:35:42;;;;;;;3.88;2.28;;;21.10;56.90;;;;;;5069892;28;20553;-59
2022/06/01 10:38:22;;;;;;;4.50;1.95;;;21.10;56.90;;;;;;5052099;28;20333;-59
2022/06/01 10:41:10;;;;;;;5.90;2.10;;;21.10;56.90;;;;;;5070601;28;20036;-59
2022/06/01 10:43:47;;;;;;;4.93;2.20;;;21.10;56.90;;;;;;5069598;28;20495;-59
2022/06/01 10:46:35;;;;;;;4.53;2.10;;;21.10;56.80;;;;;;5057062;28;20032;-59
2022/06/01 10:49:41;;;;;;;7.00;2.20;;;21.10;56.80;;;;;;5069851;28;20081;-59
2022/06/01 10:52:37;;;;;;;6.07;2.42;;;21.10;56.70;;;;;;5072509;28;20060;-59
2022/06/01 10:55:12;;;;;;;4.50;2.00;;;21.10;56.70;;;;;;5082698;28;20025;-59
2022/06/01 10:57:39;;;;;;;;;;;21.20;56.70;;;;;;5065571;28;20233;-59
2022/06/01 11:00:07;;;;;;;6.22;2.08;;;21.20;56.60;;;;;;5068291;28;19924;-59
2022/06/01 11:03:26;;;;;;;5.93;2.10;;;21.20;56.60;;;;;;5071554;28;20074;-59
2022/06/01 11:05:56;;;;;;;5.18;2.17;;;21.20;56.50;;;;;;5027363;28;20092;-59
2022/06/01 11:08:56;;;;;;;4.18;2.00;;;21.20;56.50;;;;;;5022800;28;20080;-59
2022/06/01 11:11:47;;;;;;;5.10;2.28;;;21.20;56.40;;;;;;5025605;28;20116;-59
2022/06/01 11:14:31;;;;;;;5.03;1.90;;;21.20;56.40;;;;;;4996315;28;20441;-59
2022/06/01 11:16:58;;;;;;;5.40;2.20;;;21.20;56.20;;;;;;5023571;28;20088;-59
2022/06/01 11:19:33;;;;;;;4.65;1.90;;;21.30;56.30;;;;;;5026610;28;20041;-59
2022/06/01 11:22:08;;;;;;;4.85;2.10;;;21.30;56.20;;;;;;5027037;28;20037;-59
2022/06/01 11:25:03;;;;;;;5.07;2.13;;;21.30;56.20;;;;;;5026527;28;20496;-59
2022/06/01 11:27:53;;;;;;;5.70;1.98;;;21.30;56.10;;;;;;5008502;28;20048;-59
2022/06/01 11:30:25;;;;;;;4.50;2.00;;;21.30;56.00;;;;;;5026698;28;20448;-59
2022/06/01 11:32:55;;;;;;;5.38;2.00;;;21.30;55.90;;;;;;5019775;28;20085;-59
2022/06/01 11:35:37;;;;;;;5.45;2.10;;;21.30;55.90;;;;;;5025706;28;20379;-59
2022/06/01 11:38:19;;;;;;;4.65;1.88;;;21.30;55.90;;;;;;5009293;28;20049;-62
2022/06/01 11:41:03;;;;;;;7.32;2.10;;;21.40;55.90;;;;;;5058320;28;20302;-59
2022/06/01 11:43:37;;;;;;;8.30;2.87;;;21.30;55.90;;;;;;5069062;28;20036;-61
2022/06/01 11:46:12;;;;;;;12.75;4.05;;;21.40;55.90;;;;;;5068727;28;20037;-61
2022/06/01 11:48:39;;;;;;;9.85;3.50;;;21.40;55.80;;;;;;5089507;28;20059;-61
2022/06/01 11:51:12;;;;;;;6.78;2.33;;;21.40;56.30;;;;;;5067291;28;20079;-62
2022/06/01 11:53:59;;;;;;;7.63;2.22;;;21.50;56.40;;;;;;5063192;28;20135;-62
2022/06/01 11:57:03;;;;;;;6.75;2.45;;;21.40;56.10;;;;;;5071900;28;20036;-60
2022/06/01 11:59:31;;;;;;;8.13;2.55;;;21.50;56.00;;;;;;5063569;28;20024;-60
2022/06/01 12:05:32;;;;;;;6.35;2.47;;;21.50;55.90;;;;;;5063538;28;20062;-64
2022/06/01 12:08:03;;;;;;;5.45;2.05;;;21.50;55.70;;;;;;5065539;28;20098;-58
2022/06/01 12:10:29;;;;;;;6.88;2.30;;;21.60;55.70;;;;;;5053953;28;20593;-59
2022/06/01 12:12:55;;;;;;;8.90;2.20;;;21.60;55.60;;;;;;5068648;28;20020;-59
2022/06/01 12:15:38;;;;;;;6.25;2.45;;;21.60;55.60;;;;;;5068898;28;20622;-59
2022/06/01 12:18:14;;;;;;;6.63;2.17;;;21.60;55.30;;;;;;5061773;28;20036;-59
2022/06/01 12:20:40;;;;;;;7.10;2.28;;;21.60;55.30;;;;;;5068632;28;20047;-59
2022/06/01 12:28:45;;;;;;;5.30;2.28;;;21.70;55.20;;;;;;5063364;28;20413;-59
2022/06/01 12:31:13;;;;;;;7.82;2.15;;;21.70;55.10;;;;;;5072456;28;20033;-59
2022/06/01 12:34:04;;;;;;;7.20;2.30;;;21.70;55.20;;;;;;5067344;28;20110;-59
2022/06/01 12:36:54;;;;;;;5.15;1.85;;;21.70;55.10;;;;;;5067310;28;20040;-59
2022/06/01 12:39:24;;;;;;;6.70;2.25;;;21.70;54.90;;;;;;5064708;28;20056;-59
2022/06/01 12:41:51;;;;;;;6.57;2.75;;;21.70;54.80;;;;;;5068588;28;20028;-59
2022/06/01 12:44:18;;;;;;;5.90;2.20;;;21.70;54.70;;;;;;5067951;28;20052;-59
2022/06/01 12:46:47;;;;;;;5.35;2.25;;;21.70;54.60;;;;;;5064974;28;20063;-59
2022/06/01 12:49:24;;;;;;;4.72;2.20;;;21.80;54.50;;;;;;5070004;28;20055;-59
2022/06/01 12:52:07;;;;;;;6.28;2.20;;;21.80;54.40;;;;;;5063437;28;20020;-59
2022/06/01 12:54:40;;;;;;;5.75;2.33;;;21.80;54.40;;;;;;5071406;28;20020;-59
2022/06/01 12:57:12;;;;;;;6.30;2.10;;;21.80;54.30;;;;;;5071786;28;20031;-58
2022/06/01 12:59:40;;;;;;;6.30;2.05;;;21.80;54.30;;;;;;5066101;28;20027;-59
2022/06/01 13:02:11;;;;;;;6.88;2.47;;;21.80;54.40;;;;;;5066220;28;20044;-59
2022/06/01 13:04:38;;;;;;;5.55;2.20;;;21.80;54.20;;;;;;5068491;28;20528;-59
2022/06/01 13:07:06;;;;;;;6.65;2.22;;;21.90;54.20;;;;;;5068464;28;20032;-59
2022/06/01 13:09:33;;;;;;;6.28;2.38;;;21.90;54.00;;;;;;5072735;28;20029;-59
2022/06/01 13:12:06;;;;;;;6.28;2.30;;;21.90;53.80;;;;;;5065286;28;20036;-59
2022/06/01 13:14:33;;;;;;;8.18;2.10;;;21.90;53.80;;;;;;5064893;28;20032;-59
2022/06/01 13:17:11;;;;;;;4.80;2.15;;;21.90;53.80;;;;;;5067908;28;20024;-59
2022/06/01 13:19:38;;;;;;;6.80;2.30;;;21.90;53.70;;;;;;5068830;28;20086;-59
2022/06/01 13:22:32;;;;;;;5.88;2.20;;;21.90;53.70;;;;;;5065071;28;20025;-59
2022/06/01 13:25:03;;;;;;;5.90;2.08;;;22.00;53.60;;;;;;5070607;28;20074;-59
2022/06/01 13:27:29;;;;;;;3.42;1.90;;;22.00;53.50;;;;;;5049259;28;20741;-59
2022/06/01 13:29:59;;;;;;;6.85;2.10;;;22.00;53.40;;;;;;5073206;28;20488;-59
2022/06/01 13:32:41;;;;;;;5.85;2.13;;;22.00;53.40;;;;;;5064110;28;20028;-59
2022/06/01 13:35:21;;;;;;;4.15;2.03;;;22.10;53.30;;;;;;5060095;28;20031;-59